createdAt,value
2018-06-11T00:01:19.030Z,100834.00
2018-06-11T00:03:47.975Z,100837.00
2018-06-11T00:06:16.857Z,100835.91
2018-06-11T00:08:45.744Z,100840.30
2018-06-11T00:11:14.598Z,100846.02
2018-06-11T00:13:43.484Z,100837.59
2018-06-11T00:16:12.452Z,100832.69
2018-06-11T00:18:41.271Z,100842.97
2018-06-11T00:21:10.189Z,100843.34
2018-06-11T00:23:39.062Z,100840.44
2018-06-11T00:26:07.905Z,100844.56
2018-06-11T00:28:36.830Z,100841.45
2018-06-11T00:31:05.732Z,100842.77
2018-06-11T00:33:34.609Z,100843.30
2018-06-11T00:36:03.465Z,100845.25
2018-06-11T00:38:32.306Z,100842.77
2018-06-11T00:41:01.213Z,100838.19
2018-06-11T00:43:30.128Z,100840.92
2018-06-11T00:45:59.089Z,100843.14
2018-06-11T00:48:28.049Z,100839.66
2018-06-11T00:50:57.085Z,100847.56
2018-06-11T00:53:26.040Z,100849.98
2018-06-11T00:56:06.138Z,100844.83
2018-06-11T00:58:35.111Z,100845.30
2018-06-11T01:01:04.126Z,100849.20
2018-06-11T01:03:33.057Z,100844.78
2018-06-11T01:06:01.956Z,100847.19
2018-06-11T01:08:30.888Z,100849.05
2018-06-11T01:10:59.782Z,100843.09
2018-06-11T01:13:28.689Z,100839.08
2018-06-11T01:15:57.573Z,100838.91
2018-06-11T01:18:26.485Z,100837.55
2018-06-11T01:20:58.411Z,100836.96
2018-06-11T01:23:27.277Z,100839.14
2018-06-11T01:25:56.150Z,100839.50
2018-06-11T01:28:25.036Z,100839.62
2018-06-11T01:30:53.986Z,100830.48
2018-06-11T01:33:22.851Z,100837.91
2018-06-11T01:35:51.781Z,100838.02
2018-06-11T01:45:56.416Z,100854.18
2018-06-11T01:48:25.363Z,100845.41
2018-06-11T01:50:54.248Z,100853.52
2018-06-11T01:53:23.131Z,100852.36
2018-06-11T01:55:52.054Z,100845.30
2018-06-11T01:58:21.009Z,100839.77
2018-06-11T02:00:49.918Z,100843.03
2018-06-11T02:03:18.794Z,100840.72
2018-06-11T02:05:47.703Z,100830.80
2018-06-11T02:08:16.628Z,100823.22
2018-06-11T02:10:45.471Z,100822.61
2018-06-11T02:13:14.308Z,100822.98
2018-06-11T02:15:43.201Z,100813.46
2018-06-11T02:18:13.538Z,100819.33
2018-06-11T02:20:42.541Z,100815.64
2018-06-11T02:23:11.439Z,100813.85
2018-06-11T02:25:41.399Z,100814.95
2018-06-11T02:28:10.294Z,100813.90
2018-06-11T02:30:39.654Z,100818.08
2018-06-11T02:33:08.498Z,100810.77
2018-06-11T02:35:37.368Z,100807.27
2018-06-11T02:38:06.245Z,100813.01
2018-06-11T02:40:35.243Z,100811.75
2018-06-11T02:43:04.255Z,100805.43
2018-06-11T02:45:33.100Z,100801.42
2018-06-11T02:48:01.957Z,100807.33
2018-06-11T02:50:30.821Z,100811.48
2018-06-11T02:52:59.678Z,100811.69
2018-06-11T02:55:28.509Z,100816.37
2018-06-11T02:57:57.294Z,100824.77
2018-06-11T03:00:26.121Z,100823.08
2018-06-11T03:02:55.028Z,100824.07
2018-06-11T03:05:23.887Z,100828.81
2018-06-11T03:07:52.719Z,100828.61
2018-06-11T03:10:21.535Z,100830.77
2018-06-11T03:12:50.497Z,100824.06
2018-06-11T03:15:19.381Z,100826.70
2018-06-11T03:17:48.243Z,100828.69
2018-06-11T03:20:17.105Z,100827.01
2018-06-11T03:22:45.944Z,100822.88
2018-06-11T03:25:14.771Z,100825.84
2018-06-11T03:27:43.590Z,100814.31
2018-06-11T03:30:12.386Z,100819.50
2018-06-11T03:32:44.954Z,100824.66
2018-06-11T03:35:14.045Z,100823.34
2018-06-11T03:37:42.956Z,100824.96
2018-06-11T03:40:11.814Z,100827.41
2018-06-11T03:42:40.675Z,100832.28
2018-06-11T03:45:09.594Z,100831.73
2018-06-11T03:47:38.488Z,100836.16
2018-06-11T03:50:07.387Z,100840.00
2018-06-11T03:52:39.748Z,100837.73
2018-06-11T03:55:08.759Z,100837.88
2018-06-11T03:57:37.834Z,100837.66
2018-06-11T04:00:06.782Z,100843.41
2018-06-11T04:02:35.707Z,100843.41
2018-06-11T04:05:04.598Z,100834.28
2018-06-11T04:07:33.516Z,100839.12
2018-06-11T04:10:02.387Z,100839.59
2018-06-11T04:12:31.287Z,100842.59
2018-06-11T04:15:00.227Z,100844.64
2018-06-11T04:17:29.075Z,100844.19
2018-06-11T04:19:58.006Z,100841.55
2018-06-11T04:22:26.900Z,100847.45
2018-06-11T04:24:55.805Z,100854.15
2018-06-11T04:27:25.506Z,100855.47
2018-06-11T04:29:54.633Z,100850.94
2018-06-11T04:32:23.732Z,100858.22
2018-06-11T04:34:52.661Z,100849.12
2018-06-11T04:37:22.257Z,100850.47
2018-06-11T04:39:51.524Z,100845.46
2018-06-11T04:42:20.652Z,100838.73
2018-06-11T04:44:50.143Z,100826.26
2018-06-11T04:47:19.585Z,100821.34
2018-06-11T04:49:48.504Z,100826.91
2018-06-11T04:52:17.363Z,100826.42
2018-06-11T04:54:47.137Z,100828.09
2018-06-11T04:57:15.982Z,100826.44
2018-06-11T04:59:46.262Z,100830.03
2018-06-11T05:02:15.120Z,100826.20
2018-06-11T05:04:45.552Z,100829.11
2018-06-11T05:07:14.395Z,100829.31
2018-06-11T05:09:43.964Z,100827.98
2018-06-11T05:12:12.852Z,100831.75
2018-06-11T05:14:41.741Z,100833.54
2018-06-11T05:17:10.584Z,100837.98
2018-06-11T05:19:40.925Z,100843.13
2018-06-11T05:22:09.783Z,100847.33
2018-06-11T05:24:40.828Z,100847.35
2018-06-11T05:27:09.873Z,100851.05
2018-06-11T05:29:38.760Z,100848.29
2018-06-11T05:32:07.669Z,100852.61
2018-06-11T05:34:36.574Z,100848.17
2018-06-11T05:37:05.420Z,100854.63
2018-06-11T05:39:34.244Z,100850.00
2018-06-11T05:42:03.122Z,100850.24
2018-06-11T05:44:32.579Z,100856.20
2018-06-11T05:47:02.628Z,100854.32
2018-06-11T05:49:31.673Z,100866.19
2018-06-11T05:52:00.675Z,100862.06
2018-06-11T05:54:29.558Z,100870.92
2018-06-11T05:56:59.192Z,100882.62
2018-06-11T05:59:28.115Z,100881.86
2018-06-11T06:01:58.372Z,100885.64
2018-06-11T06:04:27.260Z,100887.55
2018-06-11T06:06:56.712Z,100892.14
2018-06-11T06:09:26.867Z,100889.23
2018-06-11T06:11:55.981Z,100895.27
2018-06-11T06:14:24.816Z,100896.66
2018-06-11T06:16:53.683Z,100908.20
2018-06-11T06:19:22.617Z,100910.94
2018-06-11T06:21:51.485Z,100908.17
2018-06-11T06:24:20.355Z,100915.50
2018-06-11T06:26:49.235Z,100905.16
2018-06-11T06:29:18.123Z,100906.33
2018-06-11T06:31:47.017Z,100911.30
2018-06-11T06:34:16.004Z,100916.22
2018-06-11T06:36:44.907Z,100911.69
2018-06-11T06:39:13.842Z,100913.09
2018-06-11T06:41:42.740Z,100916.81
2018-06-11T06:44:11.576Z,100915.86
2018-06-11T06:46:40.451Z,100912.38
2018-06-11T06:49:09.342Z,100912.73
2018-06-11T06:51:38.212Z,100914.41
2018-06-11T06:54:07.247Z,100905.64
2018-06-11T06:56:36.131Z,100906.20
2018-06-11T06:59:04.999Z,100905.52
2018-06-11T07:01:33.874Z,100902.23
2018-06-11T07:04:02.813Z,100906.48
2018-06-11T07:06:31.678Z,100892.55
2018-06-11T07:09:00.572Z,100901.14
2018-06-11T07:11:29.460Z,100889.57
2018-06-11T07:13:58.381Z,100889.22
2018-06-11T07:16:27.217Z,100888.68
2018-06-11T07:18:56.084Z,100896.44
2018-06-11T07:21:25.004Z,100892.33
2018-06-11T07:23:53.889Z,100885.52
2018-06-11T07:26:22.785Z,100884.34
2018-06-11T07:28:51.693Z,100890.49
2018-06-11T07:31:20.618Z,100883.60
2018-06-11T07:33:49.505Z,100887.60
2018-06-11T07:36:18.370Z,100887.34
2018-06-11T07:38:47.260Z,100894.84
2018-06-11T07:41:16.147Z,100890.01
2018-06-11T07:43:45.030Z,100889.41
2018-06-11T07:46:14.035Z,100889.83
2018-06-11T07:48:43.050Z,100893.91
2018-06-11T07:51:11.938Z,100893.12
2018-06-11T07:53:44.023Z,100893.92
2018-06-11T07:56:12.946Z,100892.88
2018-06-11T07:58:41.869Z,100889.54
2018-06-11T08:01:10.739Z,100881.90
2018-06-11T08:03:39.648Z,100882.38
2018-06-11T08:06:08.568Z,100877.20
2018-06-11T08:08:37.455Z,100877.23
2018-06-11T08:11:06.402Z,100886.41
2018-06-11T08:13:35.444Z,100880.33
2018-06-11T08:16:04.326Z,100881.02
2018-06-11T08:18:33.226Z,100888.41
2018-06-11T08:21:02.355Z,100875.88
2018-06-11T08:23:31.209Z,100882.86
2018-06-11T08:26:00.046Z,100886.11
2018-06-11T08:28:28.888Z,100888.04
2018-06-11T08:30:57.729Z,100878.34
2018-06-11T08:33:26.585Z,100880.94
2018-06-11T08:35:55.434Z,100879.66
2018-06-11T08:38:24.363Z,100881.61
2018-06-11T08:40:53.434Z,100887.27
2018-06-11T08:43:22.347Z,100894.69
2018-06-11T08:45:51.447Z,100888.37
2018-06-11T08:48:21.056Z,100886.06
2018-06-11T08:50:49.959Z,100885.70
2018-06-11T08:53:18.802Z,100883.42
2018-06-11T08:55:47.629Z,100891.23
2018-06-11T08:58:16.607Z,100888.02
2018-06-11T09:00:45.449Z,100891.63
2018-06-11T09:03:14.345Z,100880.72
2018-06-11T09:05:43.228Z,100886.48
2018-06-11T09:08:12.178Z,100885.86
2018-06-11T09:10:41.062Z,100885.22
2018-06-11T09:13:10.041Z,100883.49
2018-06-11T09:15:38.948Z,100886.12
2018-06-11T09:18:07.919Z,100883.98
2018-06-11T09:20:36.708Z,100874.14
2018-06-11T09:23:05.603Z,100882.06
2018-06-11T09:25:34.501Z,100878.24
2018-06-11T09:28:03.369Z,100873.08
2018-06-11T09:30:32.189Z,100879.03
2018-06-11T09:33:01.054Z,100868.00
2018-06-11T09:35:29.888Z,100870.55
2018-06-11T09:37:58.733Z,100869.30
2018-06-11T09:40:27.645Z,100877.72
2018-06-11T09:42:56.518Z,100877.63
2018-06-11T09:45:25.571Z,100877.22
2018-06-11T09:47:54.522Z,100882.18
2018-06-11T09:50:23.382Z,100879.75
2018-06-11T09:52:52.247Z,100877.49
2018-06-11T09:55:22.019Z,100879.39
2018-06-11T09:57:50.938Z,100890.41
2018-06-11T10:00:25.088Z,100884.08
2018-06-11T10:02:53.938Z,100879.22
2018-06-11T10:05:22.845Z,100881.70
2018-06-11T10:07:51.690Z,100879.56
2018-06-11T10:10:20.558Z,100869.95
2018-06-11T10:12:49.424Z,100871.64
2018-06-11T10:15:18.271Z,100877.30
2018-06-11T10:17:47.121Z,100873.86
2018-06-11T10:20:16.012Z,100873.20
2018-06-11T10:22:44.909Z,100869.41
2018-06-11T10:25:13.752Z,100867.11
2018-06-11T10:27:42.654Z,100870.63
2018-06-11T10:30:11.521Z,100875.13
2018-06-11T10:32:40.384Z,100876.45
2018-06-11T10:35:09.243Z,100881.78
2018-06-11T10:37:38.069Z,100880.07
2018-06-11T10:40:06.949Z,100873.42
2018-06-11T10:42:35.821Z,100880.38
2018-06-11T10:45:04.769Z,100885.73
2018-06-11T10:47:33.690Z,100880.05
2018-06-11T10:50:02.563Z,100884.17
2018-06-11T10:52:31.397Z,100883.83
2018-06-11T10:55:00.278Z,100893.19
2018-06-11T10:57:29.139Z,100890.63
2018-06-11T10:59:57.995Z,100887.52
2018-06-11T11:02:26.879Z,100891.13
2018-06-11T11:04:55.712Z,100889.69
2018-06-11T11:07:24.569Z,100898.74
2018-06-11T11:09:53.379Z,100893.50
2018-06-11T11:12:22.233Z,100897.09
2018-06-11T11:14:51.076Z,100891.03
2018-06-11T11:17:19.921Z,100891.27
2018-06-11T11:19:48.782Z,100894.87
2018-06-11T11:22:17.705Z,100891.13
2018-06-11T11:24:46.536Z,100886.73
2018-06-11T11:27:15.361Z,100882.44
2018-06-11T11:29:44.217Z,100883.70
2018-06-11T11:32:13.065Z,100876.21
2018-06-11T11:34:41.896Z,100874.58
2018-06-11T11:37:10.789Z,100876.55
2018-06-11T11:39:39.652Z,100873.44
2018-06-11T11:42:08.709Z,100876.24
2018-06-11T11:44:37.755Z,100882.58
2018-06-11T11:47:06.645Z,100872.30
2018-06-11T11:49:35.645Z,100865.36
2018-06-11T11:52:04.508Z,100864.36
2018-06-11T11:54:33.356Z,100874.44
2018-06-11T11:57:02.232Z,100858.30
2018-06-11T11:59:31.109Z,100866.88
2018-06-11T12:01:59.934Z,100875.34
2018-06-11T12:04:28.786Z,100857.71
2018-06-11T12:06:57.678Z,100859.68
2018-06-11T12:09:26.525Z,100862.31
2018-06-11T12:11:55.392Z,100853.40
2018-06-11T12:14:24.297Z,100848.11
2018-06-11T12:16:53.170Z,100847.91
2018-06-11T12:19:22.040Z,100850.80
2018-06-11T12:21:50.878Z,100848.16
2018-06-11T12:24:19.752Z,100850.19
2018-06-11T12:26:48.605Z,100847.33
2018-06-11T12:29:17.481Z,100853.00
2018-06-11T12:31:46.357Z,100854.87
2018-06-11T12:34:15.290Z,100842.77
2018-06-11T12:36:44.201Z,100846.39
2018-06-11T12:39:13.082Z,100845.10
2018-06-11T12:41:41.977Z,100842.31
2018-06-11T12:44:10.928Z,100836.17
2018-06-11T12:46:39.939Z,100840.81
2018-06-11T12:49:08.866Z,100835.84
2018-06-11T12:51:37.733Z,100839.17
2018-06-11T12:54:06.660Z,100829.82
2018-06-11T12:56:35.582Z,100833.98
2018-06-11T12:59:04.486Z,100830.80
2018-06-11T13:01:33.386Z,100825.19
2018-06-11T13:04:02.284Z,100833.41
2018-06-11T13:06:31.102Z,100831.73
2018-06-11T13:08:59.969Z,100817.28
2018-06-11T13:11:28.849Z,100815.56
2018-06-11T13:13:57.743Z,100820.56
2018-06-11T13:16:26.606Z,100815.12
2018-06-11T13:18:55.545Z,100816.29
2018-06-11T13:21:24.447Z,100823.46
2018-06-11T13:23:53.372Z,100814.59
2018-06-11T13:26:22.281Z,100809.33
2018-06-11T13:28:51.240Z,100807.69
2018-06-11T13:31:20.100Z,100800.23
2018-06-11T13:33:49.001Z,100808.25
2018-06-11T13:36:17.848Z,100792.52
2018-06-11T13:38:46.799Z,100783.63
2018-06-11T13:41:15.802Z,100785.69
2018-06-11T13:43:44.746Z,100781.01
2018-06-11T13:46:13.749Z,100779.60
2018-06-11T13:48:42.635Z,100776.23
2018-06-11T13:51:11.562Z,100788.48
2018-06-11T13:54:01.970Z,100786.95
2018-06-11T13:56:30.816Z,100781.12
2018-06-11T13:58:59.685Z,100774.96
2018-06-11T14:01:28.600Z,100778.84
2018-06-11T14:03:57.502Z,100780.00
2018-06-11T14:06:26.359Z,100767.64
2018-06-11T14:08:55.235Z,100778.66
2018-06-11T14:11:24.142Z,100779.17
2018-06-11T14:13:52.984Z,100768.14
2018-06-11T14:16:21.887Z,100775.51
2018-06-11T14:18:50.711Z,100768.80
2018-06-11T14:21:19.575Z,100760.85
2018-06-11T14:23:48.488Z,100758.26
2018-06-11T14:26:17.430Z,100754.73
2018-06-11T14:28:46.351Z,100758.69
2018-06-11T14:31:15.223Z,100754.19
2018-06-11T14:33:44.121Z,100754.51
2018-06-11T14:36:13.000Z,100748.94
2018-06-11T14:38:41.884Z,100748.10
2018-06-11T14:41:10.794Z,100743.30
2018-06-11T14:43:39.726Z,100737.64
2018-06-11T14:46:08.802Z,100735.96
2018-06-11T14:48:37.651Z,100736.55
2018-06-11T14:51:06.558Z,100735.55
2018-06-11T14:53:35.424Z,100734.59
2018-06-11T14:56:04.244Z,100735.77
2018-06-11T14:58:33.122Z,100740.52
2018-06-11T15:01:01.977Z,100734.34
2018-06-11T15:03:30.891Z,100736.92
2018-06-11T15:05:59.762Z,100741.89
2018-06-11T15:08:28.590Z,100733.76
2018-06-11T15:10:57.448Z,100739.88
2018-06-11T15:13:26.317Z,100737.55
2018-06-11T15:15:55.150Z,100735.44
2018-06-11T15:18:24.010Z,100742.44
2018-06-11T15:20:52.979Z,100736.67
2018-06-11T15:23:21.821Z,100734.42
2018-06-11T15:25:50.769Z,100734.20
2018-06-11T15:28:19.642Z,100728.32
2018-06-11T15:30:48.521Z,100735.81
2018-06-11T15:33:17.404Z,100724.48
2018-06-11T15:35:46.387Z,100711.72
2018-06-11T15:38:16.177Z,100705.56
2018-06-11T15:40:45.009Z,100714.31
2018-06-11T15:43:13.942Z,100719.59
2018-06-11T15:45:42.860Z,100712.14
2018-06-11T15:48:11.898Z,100715.89
2018-06-11T15:50:40.725Z,100719.03
2018-06-11T15:53:10.015Z,100718.98
2018-06-11T15:55:39.200Z,100717.55
2018-06-11T15:58:08.198Z,100717.96
2018-06-11T16:00:37.177Z,100718.81
2018-06-11T16:03:06.091Z,100714.47
2018-06-11T16:05:34.984Z,100718.90
2018-06-11T16:08:03.913Z,100710.60
2018-06-11T16:10:32.803Z,100702.00
2018-06-11T16:13:01.654Z,100701.11
2018-06-11T16:15:30.561Z,100697.70
2018-06-11T16:17:59.631Z,100688.02
2018-06-11T16:20:28.549Z,100692.70
2018-06-11T16:22:57.590Z,100691.30
2018-06-11T16:25:26.956Z,100696.27
2018-06-11T16:27:55.802Z,100693.68
2018-06-11T16:30:24.737Z,100696.44
2018-06-11T16:32:53.967Z,100702.65
2018-06-11T16:35:22.835Z,100701.20
2018-06-11T16:37:51.685Z,100694.48
2018-06-11T16:40:20.534Z,100696.64
2018-06-11T16:42:49.492Z,100697.42
2018-06-11T16:45:18.414Z,100695.17
2018-06-11T16:47:47.230Z,100697.28
2018-06-11T16:50:17.630Z,100702.41
2018-06-11T16:52:58.120Z,100696.10
2018-06-11T16:55:38.284Z,100691.36
2018-06-11T16:58:08.703Z,100694.86
2018-06-11T17:00:38.670Z,100697.38
2018-06-11T17:03:07.735Z,100691.77
2018-06-11T17:05:36.661Z,100699.13
2018-06-11T17:08:06.520Z,100704.26
2018-06-11T17:10:36.648Z,100700.73
2018-06-11T17:13:05.502Z,100699.23
2018-06-11T17:15:34.805Z,100699.41
2018-06-11T17:18:03.661Z,100694.13
2018-06-11T17:20:32.592Z,100687.75
2018-06-11T17:23:01.471Z,100684.25
2018-06-11T17:25:30.430Z,100687.18
2018-06-11T17:27:59.335Z,100684.47
2018-06-11T17:30:28.511Z,100684.95
2018-06-11T17:32:57.989Z,100686.14
2018-06-11T17:35:28.141Z,100676.58
2018-06-11T17:37:57.465Z,100687.83
2018-06-11T17:40:27.038Z,100682.03
2018-06-11T17:42:57.163Z,100678.84
2018-06-11T17:45:26.078Z,100677.01
2018-06-11T17:47:55.148Z,100681.12
2018-06-11T17:50:24.163Z,100683.91
2018-06-11T17:52:53.613Z,100687.62
2018-06-11T17:55:23.014Z,100685.34
2018-06-11T17:57:51.838Z,100683.05
2018-06-11T18:00:20.855Z,100684.98
2018-06-11T18:02:49.703Z,100688.20
2018-06-11T18:05:18.554Z,100688.70
2018-06-11T18:07:47.466Z,100682.88
2018-06-11T18:10:16.384Z,100679.00
2018-06-11T18:12:45.268Z,100680.81
2018-06-11T18:15:14.269Z,100678.30
2018-06-11T18:17:43.249Z,100684.34
2018-06-11T18:20:12.132Z,100678.19
2018-06-11T18:22:41.037Z,100674.48
2018-06-11T18:25:10.020Z,100676.55
2018-06-11T18:27:38.888Z,100669.76
2018-06-11T18:30:07.997Z,100674.00
2018-06-11T18:32:36.842Z,100673.61
2018-06-11T18:35:05.802Z,100678.23
2018-06-11T18:37:34.738Z,100676.63
2018-06-11T18:40:03.663Z,100667.48
2018-06-11T18:42:32.854Z,100673.52
2018-06-11T18:45:01.783Z,100674.59
2018-06-11T18:47:31.340Z,100676.66
2018-06-11T18:50:00.279Z,100669.37
2018-06-11T18:52:29.143Z,100673.81
2018-06-11T18:54:58.000Z,100675.64
2018-06-11T18:57:26.991Z,100669.24
2018-06-11T18:59:55.992Z,100669.26
2018-06-11T19:02:26.209Z,100663.05
2018-06-11T19:04:55.031Z,100669.66
2018-06-11T19:07:24.055Z,100669.66
2018-06-11T19:09:52.947Z,100670.04
2018-06-11T19:12:22.483Z,100663.48
2018-06-11T19:14:53.040Z,100666.85
2018-06-11T19:17:22.059Z,100672.14
2018-06-11T19:19:50.936Z,100670.58
2018-06-11T19:22:19.896Z,100670.22
2018-06-11T19:24:50.389Z,100676.09
2018-06-11T19:27:19.379Z,100674.69
2018-06-11T19:29:49.444Z,100678.76
2018-06-11T19:32:19.240Z,100675.16
2018-06-11T19:34:48.185Z,100678.66
2018-06-11T19:37:17.532Z,100678.42
2018-06-11T19:39:46.465Z,100681.41
2018-06-11T19:42:15.589Z,100679.50
2018-06-11T19:44:44.626Z,100685.12
2018-06-11T19:47:13.516Z,100699.86
2018-06-11T19:49:44.170Z,100697.94
2018-06-11T19:52:13.059Z,100695.69
2018-06-11T19:54:42.576Z,100693.63
2018-06-11T19:57:11.470Z,100692.56
2018-06-11T19:59:40.419Z,100697.09
2018-06-11T20:02:09.305Z,100689.89
2018-06-11T20:04:39.357Z,100698.78
2018-06-11T20:07:08.967Z,100692.79
2018-06-11T20:09:37.885Z,100695.91
2018-06-11T20:12:08.754Z,100701.75
2018-06-11T20:14:37.653Z,100702.59
2018-06-11T20:17:06.555Z,100707.41
2018-06-11T20:19:35.717Z,100710.64
2018-06-11T20:22:05.374Z,100716.42
2018-06-11T20:24:34.252Z,100717.27
2018-06-11T20:27:03.217Z,100719.06
2018-06-11T20:29:32.153Z,100732.23
2018-06-11T20:32:01.174Z,100736.30
2018-06-11T20:34:30.040Z,100746.50
2018-06-11T20:37:00.363Z,100739.30
2018-06-11T20:39:32.812Z,100737.88
2018-06-11T20:42:01.899Z,100740.75
2018-06-11T20:44:31.819Z,100743.75
2018-06-11T20:47:00.704Z,100740.73
2018-06-11T20:49:29.664Z,100734.39
2018-06-11T20:51:59.132Z,100747.70
2018-06-11T20:54:29.610Z,100751.55
2018-06-11T20:56:59.973Z,100745.56
2018-06-11T20:59:30.094Z,100743.77
2018-06-11T21:01:59.423Z,100751.80
2018-06-11T21:04:29.691Z,100744.73
2018-06-11T21:06:59.573Z,100745.21
2018-06-11T21:09:28.511Z,100740.65
2018-06-11T21:11:57.449Z,100742.09
2018-06-11T21:14:26.322Z,100734.27
2018-06-11T21:16:56.366Z,100727.20
2018-06-11T21:19:25.251Z,100728.66
2018-06-11T21:21:54.151Z,100716.41
2018-06-11T21:24:24.270Z,100725.52
2018-06-11T21:26:53.146Z,100721.34
2018-06-11T21:29:21.977Z,100716.16
2018-06-11T21:31:51.990Z,100711.25
2018-06-11T21:34:20.901Z,100709.22
2018-06-11T21:36:49.759Z,100705.98
2018-06-11T21:39:18.704Z,100711.97
2018-06-11T21:41:47.642Z,100707.77
2018-06-11T21:44:18.067Z,100708.25
2018-06-11T21:46:47.017Z,100703.34
2018-06-11T21:49:16.062Z,100687.16
2018-06-11T21:51:44.941Z,100693.63
2018-06-11T21:54:13.888Z,100694.94
2018-06-11T21:56:42.772Z,100691.09
2018-06-11T21:59:11.671Z,100690.98
2018-06-11T22:01:40.517Z,100694.66
2018-06-11T22:04:09.437Z,100691.80
2018-06-11T22:06:38.468Z,100681.50
2018-06-11T22:09:08.942Z,100678.50
2018-06-11T22:11:37.950Z,100687.86
2018-06-11T22:14:06.989Z,100678.39
2018-06-11T22:16:35.942Z,100680.28
2018-06-11T22:19:04.878Z,100680.76
2018-06-11T22:21:33.854Z,100680.05
2018-06-11T22:24:02.817Z,100686.89
2018-06-11T22:26:31.761Z,100681.59
2018-06-11T22:29:00.749Z,100689.77
2018-06-11T22:31:30.525Z,100683.41
2018-06-11T22:33:59.492Z,100687.80
2018-06-11T22:36:28.366Z,100693.41
2018-06-11T22:38:57.267Z,100693.75
2018-06-11T22:41:26.269Z,100694.70
2018-06-11T22:43:55.184Z,100688.13
2018-06-11T22:46:24.072Z,100692.08
2018-06-11T22:48:52.970Z,100694.82
2018-06-11T22:51:21.909Z,100686.39
2018-06-11T22:53:50.743Z,100692.28
2018-06-11T22:56:19.661Z,100695.75
2018-06-11T22:58:48.525Z,100701.27
2018-06-11T23:01:17.499Z,100697.21
2018-06-11T23:03:46.330Z,100697.83
2018-06-11T23:06:15.156Z,100702.37
2018-06-11T23:08:44.058Z,100705.36
2018-06-11T23:11:13.013Z,100701.05
2018-06-11T23:13:41.921Z,100703.77
2018-06-11T23:16:10.894Z,100705.42
2018-06-11T23:18:40.317Z,100694.27
2018-06-11T23:21:09.205Z,100695.25
2018-06-11T23:23:38.118Z,100696.42
2018-06-11T23:26:06.993Z,100692.11
2018-06-11T23:28:35.918Z,100686.59
2018-06-11T23:31:04.832Z,100688.02
2018-06-11T23:33:33.653Z,100688.64
2018-06-11T23:36:02.506Z,100680.67
2018-06-11T23:38:31.417Z,100679.35
2018-06-11T23:41:00.232Z,100680.59
2018-06-11T23:43:29.108Z,100680.30
2018-06-11T23:45:57.927Z,100683.74
2018-06-11T23:48:26.753Z,100680.56
2018-06-11T23:50:55.642Z,100677.93
2018-06-11T23:53:24.531Z,100677.37
2018-06-11T23:55:53.385Z,100664.53
2018-06-11T23:58:22.239Z,100667.87
